sensor_id;sensor_type;location;lat;lon;timestamp;temperature;humidity
6114;DHT22;3087;48.392;10.836;2023-07-22T00:00:58;17.60;98.50
6114;DHT22;3087;48.392;10.836;2023-07-22T00:03:24;17.40;98.80
6114;DHT22;3087;48.392;10.836;2023-07-22T00:06:10;17.30;99.10
6114;DHT22;3087;48.392;10.836;2023-07-22T00:08:38;17.40;99.00
6114;DHT22;3087;48.392;10.836;2023-07-22T00:11:07;17.50;99.10
6114;DHT22;3087;48.392;10.836;2023-07-22T00:13:33;17.40;99.00
6114;DHT22;3087;48.392;10.836;2023-07-22T00:15:59;17.30;99.50
6114;DHT22;3087;48.392;10.836;2023-07-22T00:18:27;17.40;99.90
6114;DHT22;3087;48.392;10.836;2023-07-22T00:20:53;17.10;99.90
6114;DHT22;3087;48.392;10.836;2023-07-22T00:23:19;16.90;99.90
6114;DHT22;3087;48.392;10.836;2023-07-22T00:25:45;16.90;99.90
6114;DHT22;3087;48.392;10.836;2023-07-22T00:28:11;17.00;99.90
6114;DHT22;3087;48.392;10.836;2023-07-22T00:30:37;17.20;99.90
6114;DHT22;3087;48.392;10.836;2023-07-22T00:33:02;17.40;99.90
6114;DHT22;3087;48.392;10.836;2023-07-22T00:35:28;17.40;99.90
6114;DHT22;3087;48.392;10.836;2023-07-22T00:37:53;17.40;99.90
6114;DHT22;3087;48.392;10.836;2023-07-22T00:40:19;17.40;99.90
6114;DHT22;3087;48.392;10.836;2023-07-22T00:42:44;17.30;99.90
6114;DHT22;3087;48.392;10.836;2023-07-22T00:45:10;17.20;99.90
6114;DHT22;3087;48.392;10.836;2023-07-22T00:47:36;17.20;99.90
6114;DHT22;3087;48.392;10.836;2023-07-22T00:50:03;17.30;99.90
6114;DHT22;3087;48.392;10.836;2023-07-22T00:52:29;17.40;99.90
6114;DHT22;3087;48.392;10.836;2023-07-22T00:54:55;17.70;99.90
6114;DHT22;3087;48.392;10.836;2023-07-22T00:57:21;17.50;99.90
6114;DHT22;3087;48.392;10.836;2023-07-22T00:59:47;17.30;99.90
6114;DHT22;3087;48.392;10.836;2023-07-22T01:02:13;17.00;99.90
6114;DHT22;3087;48.392;10.836;2023-07-22T01:04:39;16.70;99.90
6114;DHT22;3087;48.392;10.836;2023-07-22T01:07:06;16.60;99.90
6114;DHT22;3087;48.392;10.836;2023-07-22T01:09:38;16.70;99.90
6114;DHT22;3087;48.392;10.836;2023-07-22T01:12:04;17.10;99.90
6114;DHT22;3087;48.392;10.836;2023-07-22T01:14:39;16.80;99.90
6114;DHT22;3087;48.392;10.836;2023-07-22T01:17:07;17.00;99.90
6114;DHT22;3087;48.392;10.836;2023-07-22T01:19:33;17.00;99.90
6114;DHT22;3087;48.392;10.836;2023-07-22T01:22:04;17.00;99.90
6114;DHT22;3087;48.392;10.836;2023-07-22T01:24:31;17.10;99.90
6114;DHT22;3087;48.392;10.836;2023-07-22T01:26:57;17.20;99.90
6114;DHT22;3087;48.392;10.836;2023-07-22T01:29:24;17.20;99.90
6114;DHT22;3087;48.392;10.836;2023-07-22T01:31:51;17.20;99.90
6114;DHT22;3087;48.392;10.836;2023-07-22T01:34:18;17.10;99.90
6114;DHT22;3087;48.392;10.836;2023-07-22T01:36:45;17.00;99.90
6114;DHT22;3087;48.392;10.836;2023-07-22T01:39:13;16.90;99.90
6114;DHT22;3087;48.392;10.836;2023-07-22T01:41:42;17.00;99.90
6114;DHT22;3087;48.392;10.836;2023-07-22T01:44:07;16.90;99.90
6114;DHT22;3087;48.392;10.836;2023-07-22T01:46:34;16.80;99.90
6114;DHT22;3087;48.392;10.836;2023-07-22T01:49:00;16.90;99.90
6114;DHT22;3087;48.392;10.836;2023-07-22T01:51:33;16.90;99.90
6114;DHT22;3087;48.392;10.836;2023-07-22T01:54:06;16.90;99.90
6114;DHT22;3087;48.392;10.836;2023-07-22T01:56:32;16.80;99.90
6114;DHT22;3087;48.392;10.836;2023-07-22T01:58:58;16.60;99.90
6114;DHT22;3087;48.392;10.836;2023-07-22T02:01:24;16.40;99.90
6114;DHT22;3087;48.392;10.836;2023-07-22T02:03:49;16.40;99.90
6114;DHT22;3087;48.392;10.836;2023-07-22T02:06:15;16.40;99.90
6114;DHT22;3087;48.392;10.836;2023-07-22T02:08:41;16.40;99.90
6114;DHT22;3087;48.392;10.836;2023-07-22T02:11:07;16.50;99.90
6114;DHT22;3087;48.392;10.836;2023-07-22T02:13:34;16.20;99.90
6114;DHT22;3087;48.392;10.836;2023-07-22T02:16:01;18.90;99.90
6114;DHT22;3087;48.392;10.836;2023-07-22T02:18:27;16.30;99.90
6114;DHT22;3087;48.392;10.836;2023-07-22T02:20:54;16.50;99.90
6114;DHT22;3087;48.392;10.836;2023-07-22T02:23:20;16.70;99.90
6114;DHT22;3087;48.392;10.836;2023-07-22T02:25:53;16.90;99.90
6114;DHT22;3087;48.392;10.836;2023-07-22T02:28:19;16.60;99.90
6114;DHT22;3087;48.392;10.836;2023-07-22T02:30:49;16.70;99.90
6114;DHT22;3087;48.392;10.836;2023-07-22T02:33:17;17.00;99.90
6114;DHT22;3087;48.392;10.836;2023-07-22T02:35:43;17.00;99.90
6114;DHT22;3087;48.392;10.836;2023-07-22T02:38:09;17.10;99.90
6114;DHT22;3087;48.392;10.836;2023-07-22T02:40:36;16.90;99.90
6114;DHT22;3087;48.392;10.836;2023-07-22T02:43:01;17.00;99.90
6114;DHT22;3087;48.392;10.836;2023-07-22T02:45:27;16.90;99.90
6114;DHT22;3087;48.392;10.836;2023-07-22T02:47:55;16.80;99.90
6114;DHT22;3087;48.392;10.836;2023-07-22T02:50:24;16.90;99.90
6114;DHT22;3087;48.392;10.836;2023-07-22T02:52:51;17.00;99.90
6114;DHT22;3087;48.392;10.836;2023-07-22T02:55:17;17.10;99.90
6114;DHT22;3087;48.392;10.836;2023-07-22T02:57:44;17.10;99.90
6114;DHT22;3087;48.392;10.836;2023-07-22T03:00:12;17.20;99.90
6114;DHT22;3087;48.392;10.836;2023-07-22T03:02:39;17.10;99.90
6114;DHT22;3087;48.392;10.836;2023-07-22T03:05:08;16.90;99.90
6114;DHT22;3087;48.392;10.836;2023-07-22T03:07:36;16.60;99.90
6114;DHT22;3087;48.392;10.836;2023-07-22T03:10:02;16.30;99.90
6114;DHT22;3087;48.392;10.836;2023-07-22T03:12:28;16.40;99.90
6114;DHT22;3087;48.392;10.836;2023-07-22T03:14:54;16.40;99.90
6114;DHT22;3087;48.392;10.836;2023-07-22T03:17:20;16.50;99.90
6114;DHT22;3087;48.392;10.836;2023-07-22T03:19:46;16.50;99.90
6114;DHT22;3087;48.392;10.836;2023-07-22T03:22:14;16.40;99.90
6114;DHT22;3087;48.392;10.836;2023-07-22T03:24:41;16.30;99.90
6114;DHT22;3087;48.392;10.836;2023-07-22T03:27:07;17.50;99.90
6114;DHT22;3087;48.392;10.836;2023-07-22T03:29:33;16.20;99.90
6114;DHT22;3087;48.392;10.836;2023-07-22T03:31:59;16.20;99.90
6114;DHT22;3087;48.392;10.836;2023-07-22T03:34:29;16.20;99.90
6114;DHT22;3087;48.392;10.836;2023-07-22T03:36:55;16.20;99.90
6114;DHT22;3087;48.392;10.836;2023-07-22T03:39:21;16.20;99.90
6114;DHT22;3087;48.392;10.836;2023-07-22T03:41:47;16.40;99.90
6114;DHT22;3087;48.392;10.836;2023-07-22T03:44:12;16.50;99.90
6114;DHT22;3087;48.392;10.836;2023-07-22T03:46:38;16.70;99.90
6114;DHT22;3087;48.392;10.836;2023-07-22T03:49:04;16.50;99.90
6114;DHT22;3087;48.392;10.836;2023-07-22T03:51:30;16.30;99.90
6114;DHT22;3087;48.392;10.836;2023-07-22T03:53:55;16.30;99.90
6114;DHT22;3087;48.392;10.836;2023-07-22T03:56:21;16.30;99.90
6114;DHT22;3087;48.392;10.836;2023-07-22T03:58:49;16.20;99.90
6114;DHT22;3087;48.392;10.836;2023-07-22T04:01:15;16.50;99.90
6114;DHT22;3087;48.392;10.836;2023-07-22T04:03:40;16.70;99.90
6114;DHT22;3087;48.392;10.836;2023-07-22T04:06:06;16.30;99.90
6114;DHT22;3087;48.392;10.836;2023-07-22T04:08:31;16.30;99.90
6114;DHT22;3087;48.392;10.836;2023-07-22T04:10:57;16.30;99.90
6114;DHT22;3087;48.392;10.836;2023-07-22T04:13:24;16.30;99.90
6114;DHT22;3087;48.392;10.836;2023-07-22T04:15:50;16.30;99.90
6114;DHT22;3087;48.392;10.836;2023-07-22T04:18:19;16.60;99.90
6114;DHT22;3087;48.392;10.836;2023-07-22T04:20:46;16.80;99.90
6114;DHT22;3087;48.392;10.836;2023-07-22T04:23:12;16.50;99.90
6114;DHT22;3087;48.392;10.836;2023-07-22T04:25:44;16.70;99.90
6114;DHT22;3087;48.392;10.836;2023-07-22T04:28:10;16.50;99.90
6114;DHT22;3087;48.392;10.836;2023-07-22T04:30:37;16.50;99.90
6114;DHT22;3087;48.392;10.836;2023-07-22T04:33:03;13.50;99.90
6114;DHT22;3087;48.392;10.836;2023-07-22T04:35:32;16.60;99.90
6114;DHT22;3087;48.392;10.836;2023-07-22T04:37:58;16.70;99.90
6114;DHT22;3087;48.392;10.836;2023-07-22T04:40:23;16.80;99.90
6114;DHT22;3087;48.392;10.836;2023-07-22T04:42:50;16.70;99.90
6114;DHT22;3087;48.392;10.836;2023-07-22T04:45:16;16.60;99.90
6114;DHT22;3087;48.392;10.836;2023-07-22T04:47:43;16.40;99.90
6114;DHT22;3087;48.392;10.836;2023-07-22T04:50:12;16.50;99.90
6114;DHT22;3087;48.392;10.836;2023-07-22T04:52:38;16.40;99.90
6114;DHT22;3087;48.392;10.836;2023-07-22T04:55:04;16.60;99.90
6114;DHT22;3087;48.392;10.836;2023-07-22T04:57:39;16.30;99.90
6114;DHT22;3087;48.392;10.836;2023-07-22T05:00:07;16.20;99.90
6114;DHT22;3087;48.392;10.836;2023-07-22T05:02:35;16.20;99.90
6114;DHT22;3087;48.392;10.836;2023-07-22T05:05:00;16.30;99.90
6114;DHT22;3087;48.392;10.836;2023-07-22T05:07:26;16.20;99.90
6114;DHT22;3087;48.392;10.836;2023-07-22T05:09:52;16.20;99.90
6114;DHT22;3087;48.392;10.836;2023-07-22T05:12:18;16.10;99.90
6114;DHT22;3087;48.392;10.836;2023-07-22T05:14:49;16.20;99.90
6114;DHT22;3087;48.392;10.836;2023-07-22T05:17:15;16.20;99.90
6114;DHT22;3087;48.392;10.836;2023-07-22T05:19:40;16.50;99.90
6114;DHT22;3087;48.392;10.836;2023-07-22T05:22:06;16.40;99.90
6114;DHT22;3087;48.392;10.836;2023-07-22T05:24:32;16.50;99.90
6114;DHT22;3087;48.392;10.836;2023-07-22T05:26:58;16.80;99.90
6114;DHT22;3087;48.392;10.836;2023-07-22T05:29:23;17.10;99.90
6114;DHT22;3087;48.392;10.836;2023-07-22T05:31:49;17.40;99.90
6114;DHT22;3087;48.392;10.836;2023-07-22T05:34:14;17.30;99.90
6114;DHT22;3087;48.392;10.836;2023-07-22T05:36:40;17.20;99.90
6114;DHT22;3087;48.392;10.836;2023-07-22T05:39:05;17.10;99.90
6114;DHT22;3087;48.392;10.836;2023-07-22T05:41:33;15.70;99.90
6114;DHT22;3087;48.392;10.836;2023-07-22T05:43:58;17.00;99.90
6114;DHT22;3087;48.392;10.836;2023-07-22T05:46:24;17.10;99.90
6114;DHT22;3087;48.392;10.836;2023-07-22T05:48:50;17.20;99.90
6114;DHT22;3087;48.392;10.836;2023-07-22T05:51:16;17.30;99.90
6114;DHT22;3087;48.392;10.836;2023-07-22T05:53:42;17.50;99.90
6114;DHT22;3087;48.392;10.836;2023-07-22T05:56:07;17.80;99.90
6114;DHT22;3087;48.392;10.836;2023-07-22T05:58:34;18.00;99.90
6114;DHT22;3087;48.392;10.836;2023-07-22T06:01:00;18.10;99.90
6114;DHT22;3087;48.392;10.836;2023-07-22T06:03:25;18.30;99.90
6114;DHT22;3087;48.392;10.836;2023-07-22T06:05:51;18.40;99.90
6114;DHT22;3087;48.392;10.836;2023-07-22T06:08:17;18.50;99.90
6114;DHT22;3087;48.392;10.836;2023-07-22T06:10:42;18.60;99.90
6114;DHT22;3087;48.392;10.836;2023-07-22T06:13:08;18.70;99.90
6114;DHT22;3087;48.392;10.836;2023-07-22T06:15:34;18.80;99.90
6114;DHT22;3087;48.392;10.836;2023-07-22T06:18:00;18.90;99.90
6114;DHT22;3087;48.392;10.836;2023-07-22T06:20:26;19.00;99.90
6114;DHT22;3087;48.392;10.836;2023-07-22T06:22:51;19.00;99.90
6114;DHT22;3087;48.392;10.836;2023-07-22T06:25:17;19.10;99.90
6114;DHT22;3087;48.392;10.836;2023-07-22T06:27:43;19.10;99.90
6114;DHT22;3087;48.392;10.836;2023-07-22T06:30:09;19.20;99.90
6114;DHT22;3087;48.392;10.836;2023-07-22T06:32:37;19.20;99.90
6114;DHT22;3087;48.392;10.836;2023-07-22T06:35:03;19.30;99.90
6114;DHT22;3087;48.392;10.836;2023-07-22T06:37:29;19.20;99.90
6114;DHT22;3087;48.392;10.836;2023-07-22T06:39:55;19.10;99.90
6114;DHT22;3087;48.392;10.836;2023-07-22T06:42:21;19.00;99.90
6114;DHT22;3087;48.392;10.836;2023-07-22T06:44:46;19.00;99.90
6114;DHT22;3087;48.392;10.836;2023-07-22T06:47:12;18.90;99.90
6114;DHT22;3087;48.392;10.836;2023-07-22T06:49:38;18.90;99.90
6114;DHT22;3087;48.392;10.836;2023-07-22T06:52:04;19.00;99.90
6114;DHT22;3087;48.392;10.836;2023-07-22T06:54:30;19.00;99.90
6114;DHT22;3087;48.392;10.836;2023-07-22T06:56:55;19.00;99.90
6114;DHT22;3087;48.392;10.836;2023-07-22T06:59:21;19.00;99.90
6114;DHT22;3087;48.392;10.836;2023-07-22T07:01:46;19.10;99.90
6114;DHT22;3087;48.392;10.836;2023-07-22T07:04:12;19.20;99.90
6114;DHT22;3087;48.392;10.836;2023-07-22T07:06:38;19.30;99.90
6114;DHT22;3087;48.392;10.836;2023-07-22T07:09:04;19.30;99.90
6114;DHT22;3087;48.392;10.836;2023-07-22T07:11:30;19.30;99.90
6114;DHT22;3087;48.392;10.836;2023-07-22T07:13:56;19.30;99.90
6114;DHT22;3087;48.392;10.836;2023-07-22T07:16:25;19.50;99.90
6114;DHT22;3087;48.392;10.836;2023-07-22T07:18:51;19.50;99.90
6114;DHT22;3087;48.392;10.836;2023-07-22T07:21:18;19.60;99.90
6114;DHT22;3087;48.392;10.836;2023-07-22T07:23:44;19.60;99.90
6114;DHT22;3087;48.392;10.836;2023-07-22T07:26:09;19.60;99.90
6114;DHT22;3087;48.392;10.836;2023-07-22T07:28:35;19.60;99.90
6114;DHT22;3087;48.392;10.836;2023-07-22T07:31:01;19.70;99.90
6114;DHT22;3087;48.392;10.836;2023-07-22T07:33:26;19.70;99.90
6114;DHT22;3087;48.392;10.836;2023-07-22T07:35:52;19.90;99.90
6114;DHT22;3087;48.392;10.836;2023-07-22T07:38:18;20.00;99.90
6114;DHT22;3087;48.392;10.836;2023-07-22T07:40:43;20.10;99.90
6114;DHT22;3087;48.392;10.836;2023-07-22T07:43:09;23.30;99.90
6114;DHT22;3087;48.392;10.836;2023-07-22T07:45:38;20.40;99.90
6114;DHT22;3087;48.392;10.836;2023-07-22T07:48:05;20.40;99.90
6114;DHT22;3087;48.392;10.836;2023-07-22T07:50:30;20.50;99.90
6114;DHT22;3087;48.392;10.836;2023-07-22T07:52:56;20.60;99.60
6114;DHT22;3087;48.392;10.836;2023-07-22T07:55:22;20.60;99.80
6114;DHT22;3087;48.392;10.836;2023-07-22T07:57:47;20.70;99.30
6114;DHT22;3087;48.392;10.836;2023-07-22T08:00:13;20.70;98.70
6114;DHT22;3087;48.392;10.836;2023-07-22T08:02:38;20.70;98.20
6114;DHT22;3087;48.392;10.836;2023-07-22T08:05:04;20.90;98.80
6114;DHT22;3087;48.392;10.836;2023-07-22T08:07:31;21.10;98.40
6114;DHT22;3087;48.392;10.836;2023-07-22T08:09:56;21.20;98.10
6114;DHT22;3087;48.392;10.836;2023-07-22T08:12:23;21.20;97.70
6114;DHT22;3087;48.392;10.836;2023-07-22T08:14:49;21.20;97.60
6114;DHT22;3087;48.392;10.836;2023-07-22T08:17:14;21.30;97.70
6114;DHT22;3087;48.392;10.836;2023-07-22T08:19:40;21.50;97.80
6114;DHT22;3087;48.392;10.836;2023-07-22T08:22:05;21.60;97.50
6114;DHT22;3087;48.392;10.836;2023-07-22T08:24:32;21.60;96.60
6114;DHT22;3087;48.392;10.836;2023-07-22T08:26:58;21.60;96.00
6114;DHT22;3087;48.392;10.836;2023-07-22T08:29:24;21.70;95.60
6114;DHT22;3087;48.392;10.836;2023-07-22T08:31:49;21.80;95.20
6114;DHT22;3087;48.392;10.836;2023-07-22T08:34:15;21.80;94.80
6114;DHT22;3087;48.392;10.836;2023-07-22T08:36:41;21.80;94.60
6114;DHT22;3087;48.392;10.836;2023-07-22T08:39:07;21.80;94.20
6114;DHT22;3087;48.392;10.836;2023-07-22T08:41:33;21.80;94.40
6114;DHT22;3087;48.392;10.836;2023-07-22T08:43:59;22.00;93.60
6114;DHT22;3087;48.392;10.836;2023-07-22T08:46:28;22.10;93.50
6114;DHT22;3087;48.392;10.836;2023-07-22T08:48:59;22.10;93.20
6114;DHT22;3087;48.392;10.836;2023-07-22T08:51:26;22.10;93.10
6114;DHT22;3087;48.392;10.836;2023-07-22T08:53:54;22.20;93.10
6114;DHT22;3087;48.392;10.836;2023-07-22T08:56:24;22.30;92.70
6114;DHT22;3087;48.392;10.836;2023-07-22T08:58:51;22.30;92.60
6114;DHT22;3087;48.392;10.836;2023-07-22T09:01:17;22.30;92.30
6114;DHT22;3087;48.392;10.836;2023-07-22T09:03:43;22.30;92.40
6114;DHT22;3087;48.392;10.836;2023-07-22T09:06:10;22.40;91.70
6114;DHT22;3087;48.392;10.836;2023-07-22T09:08:36;22.30;90.10
6114;DHT22;3087;48.392;10.836;2023-07-22T09:11:02;22.40;90.30
6114;DHT22;3087;48.392;10.836;2023-07-22T09:13:28;22.60;90.10
6114;DHT22;3087;48.392;10.836;2023-07-22T09:15:57;22.80;91.00
6114;DHT22;3087;48.392;10.836;2023-07-22T09:18:24;22.90;90.80
6114;DHT22;3087;48.392;10.836;2023-07-22T09:20:50;23.10;90.50
6114;DHT22;3087;48.392;10.836;2023-07-22T09:23:16;23.30;90.20
6114;DHT22;3087;48.392;10.836;2023-07-22T09:25:42;23.30;89.80
6114;DHT22;3087;48.392;10.836;2023-07-22T09:28:08;23.40;87.60
6114;DHT22;3087;48.392;10.836;2023-07-22T09:30:38;23.20;85.90
6114;DHT22;3087;48.392;10.836;2023-07-22T09:33:21;23.30;85.60
6114;DHT22;3087;48.392;10.836;2023-07-22T09:35:48;23.20;85.50
6114;DHT22;3087;48.392;10.836;2023-07-22T09:38:15;23.40;85.30
6114;DHT22;3087;48.392;10.836;2023-07-22T09:40:47;23.60;85.40
6114;DHT22;3087;48.392;10.836;2023-07-22T09:43:12;23.80;84.90
6114;DHT22;3087;48.392;10.836;2023-07-22T09:45:38;23.60;81.80
6114;DHT22;3087;48.392;10.836;2023-07-22T09:48:04;23.60;81.80
6114;DHT22;3087;48.392;10.836;2023-07-22T09:50:31;23.80;82.70
6114;DHT22;3087;48.392;10.836;2023-07-22T09:52:58;24.00;82.10
6114;DHT22;3087;48.392;10.836;2023-07-22T09:55:26;24.00;82.50
6114;DHT22;3087;48.392;10.836;2023-07-22T10:00:20;24.20;81.60
6114;DHT22;3087;48.392;10.836;2023-07-22T10:02:49;24.10;80.50
6114;DHT22;3087;48.392;10.836;2023-07-22T10:05:18;24.10;79.30
6114;DHT22;3087;48.392;10.836;2023-07-22T10:07:49;24.50;81.00
6114;DHT22;3087;48.392;10.836;2023-07-22T10:10:17;25.10;81.30
6114;DHT22;3087;48.392;10.836;2023-07-22T10:12:44;25.20;80.80
6114;DHT22;3087;48.392;10.836;2023-07-22T10:15:12;25.70;78.60
6114;DHT22;3087;48.392;10.836;2023-07-22T10:17:41;26.50;77.20
6114;DHT22;3087;48.392;10.836;2023-07-22T10:20:08;27.00;76.30
6114;DHT22;3087;48.392;10.836;2023-07-22T10:22:44;27.30;75.70
6114;DHT22;3087;48.392;10.836;2023-07-22T10:25:12;27.60;73.00
6114;DHT22;3087;48.392;10.836;2023-07-22T10:27:39;28.10;74.40
6114;DHT22;3087;48.392;10.836;2023-07-22T10:30:11;28.20;72.30
6114;DHT22;3087;48.392;10.836;2023-07-22T10:32:39;28.70;71.20
6114;DHT22;3087;48.392;10.836;2023-07-22T10:35:08;29.20;70.20
6114;DHT22;3087;48.392;10.836;2023-07-22T10:37:36;29.40;70.40
6114;DHT22;3087;48.392;10.836;2023-07-22T10:42:53;29.50;69.80
6114;DHT22;3087;48.392;10.836;2023-07-22T10:45:51;28.80;69.00
6114;DHT22;3087;48.392;10.836;2023-07-22T10:48:18;27.90;69.40
6114;DHT22;3087;48.392;10.836;2023-07-22T10:53:42;29.10;69.40
6114;DHT22;3087;48.392;10.836;2023-07-22T11:12:03;28.80;68.10
6114;DHT22;3087;48.392;10.836;2023-07-22T11:14:31;28.40;68.80
6114;DHT22;3087;48.392;10.836;2023-07-22T11:16:58;28.80;68.00
6114;DHT22;3087;48.392;10.836;2023-07-22T11:19:24;29.20;68.00
6114;DHT22;3087;48.392;10.836;2023-07-22T11:21:51;30.00;67.60
6114;DHT22;3087;48.392;10.836;2023-07-22T11:24:18;30.50;65.70
6114;DHT22;3087;48.392;10.836;2023-07-22T11:26:45;30.20;65.60
6114;DHT22;3087;48.392;10.836;2023-07-22T11:29:11;30.60;65.60
6114;DHT22;3087;48.392;10.836;2023-07-22T11:31:39;30.40;64.50
6114;DHT22;3087;48.392;10.836;2023-07-22T11:36:39;30.40;65.20
6114;DHT22;3087;48.392;10.836;2023-07-22T11:41:32;30.30;64.20
6114;DHT22;3087;48.392;10.836;2023-07-22T11:43:59;30.50;63.20
6114;DHT22;3087;48.392;10.836;2023-07-22T11:46:28;30.50;64.00
6114;DHT22;3087;48.392;10.836;2023-07-22T11:48:55;29.70;63.80
6114;DHT22;3087;48.392;10.836;2023-07-22T11:51:23;28.90;66.10
6114;DHT22;3087;48.392;10.836;2023-07-22T11:53:50;28.60;65.10
6114;DHT22;3087;48.392;10.836;2023-07-22T11:56:27;28.50;65.70
6114;DHT22;3087;48.392;10.836;2023-07-22T11:58:54;28.90;65.70
6114;DHT22;3087;48.392;10.836;2023-07-22T12:01:20;28.90;64.70
6114;DHT22;3087;48.392;10.836;2023-07-22T12:03:46;29.30;64.90
6114;DHT22;3087;48.392;10.836;2023-07-22T12:06:13;29.20;64.70
6114;DHT22;3087;48.392;10.836;2023-07-22T12:08:47;29.80;65.30
6114;DHT22;3087;48.392;10.836;2023-07-22T12:11:16;30.40;64.20
6114;DHT22;3087;48.392;10.836;2023-07-22T12:13:42;31.10;64.20
6114;DHT22;3087;48.392;10.836;2023-07-22T12:16:12;32.00;63.70
6114;DHT22;3087;48.392;10.836;2023-07-22T12:18:44;31.50;61.80
6114;DHT22;3087;48.392;10.836;2023-07-22T12:21:10;31.80;62.20
6114;DHT22;3087;48.392;10.836;2023-07-22T12:23:36;32.10;62.10
6114;DHT22;3087;48.392;10.836;2023-07-22T12:26:03;33.00;62.40
6114;DHT22;3087;48.392;10.836;2023-07-22T12:28:29;33.70;60.60
6114;DHT22;3087;48.392;10.836;2023-07-22T12:30:54;34.10;64.90
6114;DHT22;3087;48.392;10.836;2023-07-22T12:33:23;34.40;63.70
6114;DHT22;3087;48.392;10.836;2023-07-22T12:35:50;34.40;62.40
6114;DHT22;3087;48.392;10.836;2023-07-22T12:38:15;34.40;63.60
6114;DHT22;3087;48.392;10.836;2023-07-22T12:40:41;33.80;60.20
6114;DHT22;3087;48.392;10.836;2023-07-22T12:43:06;33.50;59.80
6114;DHT22;3087;48.392;10.836;2023-07-22T12:45:33;33.40;62.40
6114;DHT22;3087;48.392;10.836;2023-07-22T12:47:59;33.50;61.20
6114;DHT22;3087;48.392;10.836;2023-07-22T12:50:24;33.80;61.70
6114;DHT22;3087;48.392;10.836;2023-07-22T12:52:50;33.60;59.10
6114;DHT22;3087;48.392;10.836;2023-07-22T12:55:16;33.20;59.40
6114;DHT22;3087;48.392;10.836;2023-07-22T12:57:41;33.60;62.50
6114;DHT22;3087;48.392;10.836;2023-07-22T13:00:07;33.50;59.40
6114;DHT22;3087;48.392;10.836;2023-07-22T13:02:35;33.20;60.60
6114;DHT22;3087;48.392;10.836;2023-07-22T13:05:01;33.40;61.00
6114;DHT22;3087;48.392;10.836;2023-07-22T13:07:27;33.60;58.50
6114;DHT22;3087;48.392;10.836;2023-07-22T13:09:53;34.20;59.00
6114;DHT22;3087;48.392;10.836;2023-07-22T13:12:22;34.20;58.40
6114;DHT22;3087;48.392;10.836;2023-07-22T13:14:47;33.50;60.70
6114;DHT22;3087;48.392;10.836;2023-07-22T13:17:13;33.30;62.20
6114;DHT22;3087;48.392;10.836;2023-07-22T13:19:38;32.60;57.60
6114;DHT22;3087;48.392;10.836;2023-07-22T13:22:04;31.90;58.70
6114;DHT22;3087;48.392;10.836;2023-07-22T13:24:30;31.40;59.60
6114;DHT22;3087;48.392;10.836;2023-07-22T13:26:55;32.10;62.00
6114;DHT22;3087;48.392;10.836;2023-07-22T13:29:21;33.00;59.70
6114;DHT22;3087;48.392;10.836;2023-07-22T13:31:47;34.00;60.80
6114;DHT22;3087;48.392;10.836;2023-07-22T13:34:12;34.60;59.50
6114;DHT22;3087;48.392;10.836;2023-07-22T13:36:38;34.40;58.90
6114;DHT22;3087;48.392;10.836;2023-07-22T13:39:03;34.20;58.10
6114;DHT22;3087;48.392;10.836;2023-07-22T13:41:29;34.10;59.70
6114;DHT22;3087;48.392;10.836;2023-07-22T13:43:55;33.60;58.00
6114;DHT22;3087;48.392;10.836;2023-07-22T13:46:20;32.60;58.20
6114;DHT22;3087;48.392;10.836;2023-07-22T13:48:46;31.40;58.70
6114;DHT22;3087;48.392;10.836;2023-07-22T13:51:11;30.70;59.80
6114;DHT22;3087;48.392;10.836;2023-07-22T13:53:37;31.20;59.90
6114;DHT22;3087;48.392;10.836;2023-07-22T13:56:03;30.50;59.60
6114;DHT22;3087;48.392;10.836;2023-07-22T13:58:28;30.20;60.90
6114;DHT22;3087;48.392;10.836;2023-07-22T14:00:54;30.60;60.50
6114;DHT22;3087;48.392;10.836;2023-07-22T14:03:19;31.50;61.30
6114;DHT22;3087;48.392;10.836;2023-07-22T14:05:45;32.40;59.50
6114;DHT22;3087;48.392;10.836;2023-07-22T14:08:12;33.20;61.00
6114;DHT22;3087;48.392;10.836;2023-07-22T14:10:38;33.50;59.70
6114;DHT22;3087;48.392;10.836;2023-07-22T14:13:03;33.00;61.20
6114;DHT22;3087;48.392;10.836;2023-07-22T14:15:29;32.00;59.10
6114;DHT22;3087;48.392;10.836;2023-07-22T14:17:54;31.30;61.30
6114;DHT22;3087;48.392;10.836;2023-07-22T14:20:20;31.20;61.90
6114;DHT22;3087;48.392;10.836;2023-07-22T14:22:45;31.80;61.00
6114;DHT22;3087;48.392;10.836;2023-07-22T14:25:11;32.40;60.20
6114;DHT22;3087;48.392;10.836;2023-07-22T14:27:40;31.70;57.80
6114;DHT22;3087;48.392;10.836;2023-07-22T14:30:07;31.60;59.80
6114;DHT22;3087;48.392;10.836;2023-07-22T14:32:32;31.30;58.70
6114;DHT22;3087;48.392;10.836;2023-07-22T14:34:58;31.40;60.20
6114;DHT22;3087;48.392;10.836;2023-07-22T14:37:23;31.70;61.50
6114;DHT22;3087;48.392;10.836;2023-07-22T14:39:49;32.40;59.50
6114;DHT22;3087;48.392;10.836;2023-07-22T14:42:15;32.80;60.30
6114;DHT22;3087;48.392;10.836;2023-07-22T14:44:40;33.10;59.30
6114;DHT22;3087;48.392;10.836;2023-07-22T14:47:06;33.30;59.50
6114;DHT22;3087;48.392;10.836;2023-07-22T14:49:32;28.90;55.90
6114;DHT22;3087;48.392;10.836;2023-07-22T14:51:57;32.60;58.50
6114;DHT22;3087;48.392;10.836;2023-07-22T14:54:23;32.50;60.00
6114;DHT22;3087;48.392;10.836;2023-07-22T14:56:49;32.60;60.90
6114;DHT22;3087;48.392;10.836;2023-07-22T14:59:15;32.40;60.40
6114;DHT22;3087;48.392;10.836;2023-07-22T15:01:42;32.40;60.30
6114;DHT22;3087;48.392;10.836;2023-07-22T15:04:08;32.10;60.60
6114;DHT22;3087;48.392;10.836;2023-07-22T15:06:35;31.50;61.30
6114;DHT22;3087;48.392;10.836;2023-07-22T15:09:02;31.00;60.10
6114;DHT22;3087;48.392;10.836;2023-07-22T15:11:29;30.80;61.50
6114;DHT22;3087;48.392;10.836;2023-07-22T15:13:55;31.00;60.70
6114;DHT22;3087;48.392;10.836;2023-07-22T15:16:20;31.70;61.90
6114;DHT22;3087;48.392;10.836;2023-07-22T15:18:46;31.80;60.10
6114;DHT22;3087;48.392;10.836;2023-07-22T15:21:11;31.80;60.10
6114;DHT22;3087;48.392;10.836;2023-07-22T15:23:37;32.00;59.40
6114;DHT22;3087;48.392;10.836;2023-07-22T15:26:02;32.00;59.90
6114;DHT22;3087;48.392;10.836;2023-07-22T15:28:28;31.90;59.40
6114;DHT22;3087;48.392;10.836;2023-07-22T15:30:54;31.50;58.90
6114;DHT22;3087;48.392;10.836;2023-07-22T15:33:19;31.10;60.00
6114;DHT22;3087;48.392;10.836;2023-07-22T15:35:47;31.30;62.00
6114;DHT22;3087;48.392;10.836;2023-07-22T15:38:13;31.70;61.60
6114;DHT22;3087;48.392;10.836;2023-07-22T15:40:39;32.00;61.10
6114;DHT22;3087;48.392;10.836;2023-07-22T15:43:05;31.90;60.30
6114;DHT22;3087;48.392;10.836;2023-07-22T15:45:30;31.80;59.40
6114;DHT22;3087;48.392;10.836;2023-07-22T15:47:56;31.90;60.90
6114;DHT22;3087;48.392;10.836;2023-07-22T15:50:21;31.70;61.00
6114;DHT22;3087;48.392;10.836;2023-07-22T15:52:47;31.60;61.10
6114;DHT22;3087;48.392;10.836;2023-07-22T15:55:12;31.60;60.80
6114;DHT22;3087;48.392;10.836;2023-07-22T15:57:39;31.50;61.40
6114;DHT22;3087;48.392;10.836;2023-07-22T16:00:05;31.20;61.30
6114;DHT22;3087;48.392;10.836;2023-07-22T16:02:35;31.10;60.40
6114;DHT22;3087;48.392;10.836;2023-07-22T16:05:01;30.80;60.90
6114;DHT22;3087;48.392;10.836;2023-07-22T16:07:29;30.20;62.20
6114;DHT22;3087;48.392;10.836;2023-07-22T16:09:54;29.80;63.10